Time;durP1;ratioP1;P1;durP2;ratioP2;P2;SDS_P1;SDS_P2;PMS_P1;PMS_P2;Temp;Humidity;BMP_temperature;BMP_pressure;BME280_temperature;BME280_humidity;BME280_pressure;Samples;Min_cycle;Max_cycle;Signal;HPM_P1;HPM_P2
2020/12/10 00:00:59;;;;;;;7.22;3.38;;;1.40;94.00;;;4.91;77.50;100999.53;5029590;27;97391;-73
2020/12/10 00:03:31;;;;;;;13.43;1.65;;;1.40;94.00;;;4.90;77.90;100997.13;5010275;28;96922;-73
2020/12/10 00:05:59;;;;;;;4.72;3.70;;;1.40;94.00;;;4.99;77.99;100998.25;5028346;27;97867;-73
2020/12/10 00:08:32;;;;;;;21.20;8.00;;;1.40;94.00;;;5.02;77.86;100993.19;5025043;28;97053;-73
2020/12/10 00:11:03;;;;;;;7.85;4.85;;;1.40;94.00;;;5.07;77.53;100992.44;5025190;28;96731;-74
2020/12/10 00:13:32;;;;;;;5.47;3.22;;;1.40;94.00;;;4.97;77.93;100995.84;5003656;28;96719;-74
2020/12/10 00:16:02;;;;;;;5.32;3.78;;;1.50;94.00;;;4.97;77.81;100993.19;5024602;28;97282;-73
2020/12/10 00:18:31;;;;;;;8.38;3.30;;;1.50;94.00;;;5.01;77.34;100996.91;5017566;28;97789;-73
2020/12/10 00:21:00;;;;;;;4.57;3.08;;;1.50;94.00;;;5.16;77.29;100996.19;5038609;27;97402;-73
2020/12/10 00:23:30;;;;;;;7.78;5.82;;;1.50;94.00;;;5.07;77.90;100987.13;5022965;28;96683;-73
2020/12/10 00:26:04;;;;;;;12.90;3.63;;;1.50;94.00;;;5.03;77.67;100991.38;5015067;28;97672;-73
2020/12/10 00:28:32;;;;;;;9.85;4.00;;;1.50;93.90;;;5.05;77.55;100982.06;5024537;28;97058;-73
2020/12/10 00:31:00;;;;;;;6.07;4.40;;;1.50;93.90;;;4.96;77.61;100983.63;5033480;27;96760;-73
2020/12/10 00:33:30;;;;;;;11.13;3.90;;;1.50;93.90;;;4.82;78.14;100994.97;5035806;27;96870;-74
2020/12/10 00:35:59;;;;;;;7.13;3.75;;;1.50;93.90;;;4.75;78.46;101000.50;5027436;28;98263;-74
2020/12/10 00:38:31;;;;;;;8.05;3.63;;;1.50;93.90;;;4.69;78.78;100990.13;5038393;27;96776;-73
2020/12/10 00:40:58;;;;;;;9.68;4.60;;;1.50;93.90;;;4.78;78.61;100993.88;5016574;28;96938;-73
2020/12/10 00:43:27;;;;;;;12.95;5.15;;;1.40;93.80;;;4.83;78.37;100994.72;5020945;28;96882;-73
2020/12/10 00:46:03;;;;;;;3.55;2.88;;;1.40;93.90;;;4.73;78.37;100984.03;5034813;27;96882;-74
2020/12/10 00:48:33;;;;;;;14.80;6.22;;;1.40;93.90;;;4.77;78.52;100986.97;5026650;28;97859;-73
2020/12/10 00:51:05;;;;;;;13.25;3.15;;;1.40;93.90;;;4.81;78.46;100988.06;5044370;27;96824;-73
2020/12/10 00:53:32;;;;;;;4.45;4.07;;;1.40;93.90;;;4.77;78.08;100993.06;5020142;28;97199;-73
2020/12/10 00:56:02;;;;;;;5.55;4.15;;;1.40;93.90;;;4.89;78.32;100991.03;5026894;28;97992;-73
2020/12/10 00:58:31;;;;;;;12.00;6.55;;;1.40;93.90;;;4.85;77.90;100984.63;5017032;28;96595;-73
2020/12/10 01:00:59;;;;;;;22.83;5.07;;;1.40;93.90;;;4.81;78.47;100980.91;5020811;28;96637;-73
2020/12/10 01:03:30;;;;;;;6.13;4.28;;;1.40;93.90;;;4.76;78.18;100980.06;5019446;28;97002;-74
2020/12/10 01:05:58;;;;;;;6.88;1.63;;;1.40;93.90;;;4.81;78.33;100980.91;5012069;28;96749;-74
2020/12/10 01:08:25;;;;;;;10.73;5.03;;;1.40;93.90;;;4.73;78.66;100975.28;5020858;28;97992;-74
2020/12/10 01:10:53;;;;;;;8.35;3.33;;;1.40;93.90;;;4.79;78.31;100976.91;5023415;27;96620;-73
2020/12/10 01:13:20;;;;;;;4.03;2.53;;;1.40;93.90;;;4.81;78.57;100967.63;5028586;27;96948;-73
2020/12/10 01:15:54;;;;;;;3.75;2.15;;;1.50;94.00;;;4.79;78.76;100961.75;5024551;28;96847;-73
2020/12/10 01:18:22;;;;;;;9.70;5.97;;;1.40;93.90;;;4.79;78.73;100964.41;5047470;27;98695;-73
2020/12/10 01:20:50;;;;;;;3.90;2.60;;;1.40;93.90;;;4.74;78.15;100969.69;5027921;27;96671;-73
2020/12/10 01:23:22;;;;;;;16.77;4.28;;;1.40;93.90;;;4.78;78.60;100970.78;5027064;28;96866;-73
2020/12/10 01:25:49;;;;;;;6.18;3.25;;;1.40;93.90;;;4.86;78.21;100972.97;5025734;28;98992;-73
2020/12/10 01:28:17;;;;;;;6.88;3.35;;;1.40;93.90;;;4.86;78.45;100972.16;5018596;27;98046;-73
2020/12/10 01:30:44;;;;;;;5.88;4.00;;;1.50;94.00;;;4.85;78.50;100968.72;5013700;28;96769;-73
2020/12/10 01:33:13;;;;;;;7.93;4.93;;;1.50;94.00;;;4.95;78.22;100965.28;5027222;28;97441;-73
2020/12/10 01:35:40;;;;;;;3.60;3.17;;;1.50;94.00;;;4.95;77.93;100967.94;5019879;28;97990;-73
2020/12/10 01:38:08;;;;;;;10.20;3.42;;;1.50;94.00;;;4.97;78.13;100966.63;5030959;27;96638;-73
2020/12/10 01:40:36;;;;;;;5.75;3.55;;;1.50;94.00;;;5.02;77.74;100953.38;5030623;28;96589;-73
2020/12/10 01:43:05;;;;;;;11.82;5.13;;;1.50;94.00;;;5.08;77.88;100956.84;5024434;28;97191;-73
2020/12/10 01:45:32;;;;;;;12.25;5.05;;;1.50;94.00;;;5.09;77.97;100953.94;5016988;28;98149;-73
2020/12/10 01:48:02;;;;;;;4.57;3.45;;;1.50;94.00;;;5.09;78.13;100947.84;5013829;28;97716;-73
2020/12/10 01:50:32;;;;;;;7.00;5.97;;;1.50;94.00;;;5.05;77.92;100941.44;5015133;28;97071;-73
2020/12/10 01:53:00;;;;;;;9.77;5.88;;;1.50;94.00;;;5.08;78.13;100939.06;5025732;28;96880;-73
2020/12/10 01:55:31;;;;;;;6.50;4.43;;;1.60;94.00;;;5.05;77.98;100942.22;5032111;27;98234;-73
2020/12/10 01:58:00;;;;;;;8.90;4.53;;;1.60;94.00;;;5.08;77.75;100940.94;5020910;28;97772;-73
2020/12/10 02:00:32;;;;;;;8.90;3.58;;;1.60;94.00;;;5.07;78.11;100937.47;5014191;28;96716;-73
2020/12/10 02:03:00;;;;;;;3.80;2.72;;;1.60;94.00;;;5.05;77.76;100934.28;5042004;27;96853;-74
2020/12/10 02:05:31;;;;;;;6.53;3.38;;;1.60;93.90;;;5.10;77.95;100938.81;5023582;27;96861;-74
2020/12/10 02:07:59;;;;;;;10.23;4.03;;;1.60;94.00;;;5.03;78.27;100938.25;5014149;28;97720;-73
2020/12/10 02:10:31;;;;;;;18.48;5.55;;;1.60;94.00;;;5.01;77.88;100946.47;5011997;28;96784;-73
2020/12/10 02:12:58;;;;;;;5.55;5.05;;;1.60;93.90;;;5.02;78.14;100949.94;5011595;28;96641;-73
2020/12/10 02:15:26;;;;;;;9.98;4.25;;;1.60;94.00;;;5.01;78.02;100945.69;5029315;28;96943;-74
2020/12/10 02:17:54;;;;;;;4.30;1.95;;;1.60;94.00;;;5.04;78.04;100945.94;5012295;28;96773;-73
2020/12/10 02:20:22;;;;;;;3.45;2.67;;;1.60;94.00;;;5.11;78.15;100951.03;5030093;28;97251;-73
2020/12/10 02:22:59;;;;;;;9.32;4.72;;;1.60;94.00;;;5.05;78.05;100947.53;5019597;27;97048;-73
2020/12/10 02:25:30;;;;;;;2.22;2.05;;;1.60;94.00;;;5.09;78.57;100945.97;5017279;28;96812;-74
2020/12/10 02:28:05;;;;;;;3.40;2.45;;;1.60;94.00;;;5.11;77.74;100938.56;5027904;27;96733;-73
2020/12/10 02:30:53;;;;;;;4.70;3.28;;;1.60;94.00;;;5.15;77.90;100941.47;5024564;27;97183;-73
2020/12/10 02:33:21;;;;;;;4.05;2.70;;;1.60;94.00;;;5.14;77.76;100938.03;5029859;28;96912;-73
2020/12/10 02:35:49;;;;;;;15.20;3.92;;;1.60;94.00;;;5.23;77.41;100931.16;5024051;28;99016;-73
2020/12/10 02:38:17;;;;;;;6.72;3.72;;;1.60;94.00;;;5.21;77.92;100927.97;5016777;28;96715;-74
2020/12/10 02:40:47;;;;;;;10.48;5.72;;;1.70;94.00;;;5.16;78.08;100927.13;5029389;28;97184;-73
2020/12/10 02:43:16;;;;;;;11.50;4.50;;;1.70;94.00;;;5.04;78.32;100927.38;5037451;27;96846;-73
2020/12/10 02:45:44;;;;;;;13.30;6.03;;;1.70;94.00;;;5.07;78.09;100913.56;5014065;28;98060;-73
2020/12/10 02:48:12;;;;;;;3.72;3.13;;;1.60;93.90;;;5.04;78.02;100913.31;5020199;28;97682;-73
2020/12/10 02:50:40;;;;;;;4.90;3.80;;;1.60;93.90;;;4.97;78.36;100904.78;5023909;28;96746;-73
2020/12/10 02:53:07;;;;;;;4.82;3.80;;;1.60;93.90;;;5.01;78.54;100909.31;5019663;28;96851;-73
2020/12/10 02:55:36;;;;;;;28.33;4.22;;;1.60;94.10;;;5.01;78.71;100911.94;5017550;27;98138;-73
2020/12/10 02:58:05;;;;;;;13.60;5.25;;;1.70;94.20;;;5.02;78.37;100913.56;5013531;28;98623;-73
2020/12/10 03:00:33;;;;;;;5.07;3.42;;;1.60;93.90;;;5.08;78.67;100912.50;5037937;27;97196;-73
2020/12/10 03:03:02;;;;;;;6.30;2.85;;;1.70;94.00;;;5.04;78.50;100914.09;5022009;28;96730;-73
2020/12/10 03:05:31;;;;;;;4.90;3.17;;;1.70;94.20;;;5.05;78.46;100905.06;5015290;27;97805;-73
2020/12/10 03:07:59;;;;;;;9.88;4.97;;;1.70;94.00;;;5.13;78.01;100901.91;5020982;27;97639;-73
2020/12/10 03:10:26;;;;;;;6.93;3.38;;;1.60;93.90;;;5.13;77.69;100901.91;5027852;28;96589;-73
2020/12/10 03:12:55;;;;;;;14.00;5.00;;;1.60;93.90;;;5.13;78.62;100899.25;5024510;28;97166;-74
2020/12/10 03:15:22;;;;;;;11.00;4.28;;;1.60;93.90;;;5.06;78.58;100889.94;5019358;28;97135;-73
2020/12/10 03:17:50;;;;;;;4.78;2.97;;;1.60;94.00;;;5.07;78.59;100891.53;5025128;28;96839;-73
2020/12/10 03:20:18;;;;;;;11.98;3.65;;;1.70;94.00;;;5.00;78.84;100889.13;5017938;27;96933;-73
2020/12/10 03:22:46;;;;;;;7.88;4.15;;;1.60;94.00;;;5.02;78.69;100891.53;5011610;28;97113;-73
2020/12/10 03:25:13;;;;;;;6.07;4.72;;;1.60;94.00;;;5.00;78.41;100886.47;5022682;27;96932;-73
2020/12/10 03:27:43;;;;;;;5.63;3.42;;;1.70;94.00;;;5.08;78.28;100888.59;5026300;28;97047;-74
2020/12/10 03:30:11;;;;;;;21.23;6.72;;;1.70;94.00;;;5.03;78.38;100882.50;5022384;28;97220;-73
2020/12/10 03:32:39;;;;;;;3.85;2.88;;;1.60;93.90;;;5.04;78.44;100882.22;5008374;28;96785;-73
2020/12/10 03:35:07;;;;;;;11.57;5.70;;;1.70;93.90;;;5.01;78.89;100881.97;5007811;28;97785;-73
2020/12/10 03:37:34;;;;;;;11.32;3.08;;;1.60;93.90;;;5.01;78.48;100881.97;5026438;27;97997;-73
2020/12/10 03:40:06;;;;;;;2.72;2.53;;;1.60;93.90;;;5.02;78.32;100880.91;5029160;28;97185;-73
2020/12/10 03:42:33;;;;;;;2.10;2.00;;;1.60;94.00;;;5.03;78.85;100885.94;5025323;27;96756;-74
2020/12/10 03:45:03;;;;;;;6.25;4.00;;;1.60;94.00;;;5.12;78.74;100879.09;5020826;28;97765;-73
2020/12/10 03:47:32;;;;;;;3.95;3.50;;;1.60;94.00;;;5.19;77.16;100866.34;5022072;27;97753;-73
2020/12/10 03:50:06;;;;;;;11.20;4.90;;;1.60;94.00;;;5.13;78.23;100863.94;5005600;28;97148;-73
2020/12/10 03:52:34;;;;;;;3.78;2.63;;;1.60;94.00;;;5.09;77.97;100863.66;5010839;28;97472;-73
2020/12/10 03:55:03;;;;;;;17.40;5.90;;;1.60;94.00;;;4.99;78.05;100858.31;5019864;27;96950;-73
2020/12/10 03:57:31;;;;;;;5.60;4.97;;;1.60;93.90;;;5.06;77.55;100864.16;5027832;28;96955;-73
2020/12/10 03:59:59;;;;;;;8.68;5.10;;;1.60;93.90;;;5.08;77.69;100862.06;5025573;28;97769;-73
2020/12/10 04:02:26;;;;;;;5.60;2.92;;;1.60;93.90;;;5.04;77.46;100858.31;5028241;28;96768;-73
2020/12/10 04:04:54;;;;;;;18.83;6.65;;;1.50;93.90;;;5.05;77.34;100861.78;5022191;27;98832;-73
2020/12/10 04:07:22;;;;;;;5.47;3.58;;;1.50;93.90;;;5.05;77.45;100864.44;5018783;27;96694;-73
2020/12/10 04:09:50;;;;;;;10.90;4.63;;;1.50;93.90;;;5.01;77.43;100860.72;5010559;28;97016;-73
2020/12/10 04:12:17;;;;;;;8.80;3.97;;;1.50;93.90;;;4.97;77.75;100863.09;5020538;27;96802;-73
2020/12/10 04:14:45;;;;;;;7.45;4.40;;;1.50;93.90;;;4.94;77.66;100865.47;5027912;28;98518;-73
2020/12/10 04:17:12;;;;;;;7.57;6.00;;;1.40;93.90;;;4.91;77.66;100861.50;5028259;27;97811;-73
2020/12/10 04:19:40;;;;;;;6.93;3.90;;;1.40;93.90;;;4.83;77.67;100854.03;5025114;27;96965;-73
2020/12/10 04:22:09;;;;;;;3.60;3.30;;;1.40;93.90;;;4.91;77.73;100856.19;5023870;27;97169;-73
2020/12/10 04:24:36;;;;;;;8.98;4.32;;;1.40;93.90;;;4.78;78.23;100855.88;5045157;27;97084;-73
2020/12/10 04:27:05;;;;;;;10.40;6.32;;;1.40;93.90;;;4.80;78.16;100856.41;5029702;27;97129;-73
2020/12/10 04:29:33;;;;;;;4.72;3.47;;;1.40;94.00;;;4.83;78.16;100856.69;5025074;28;96643;-73
2020/12/10 04:32:02;;;;;;;10.43;3.78;;;1.40;94.00;;;4.82;78.11;100855.09;5011641;28;97067;-73
2020/12/10 04:34:31;;;;;;;2.80;2.20;;;1.40;94.00;;;4.76;78.27;100858.78;5013429;28;96917;-74
2020/12/10 04:36:58;;;;;;;10.98;5.68;;;1.40;94.00;;;4.75;78.62;100856.41;5011628;28;99088;-73
2020/12/10 04:39:27;;;;;;;12.35;5.40;;;1.40;93.90;;;4.76;78.45;100853.47;5023565;27;96785;-74
2020/12/10 04:41:54;;;;;;;7.00;3.92;;;1.30;93.90;;;4.83;78.05;100863.84;5018717;27;96728;-74
2020/12/10 04:44:22;;;;;;;6.50;4.95;;;1.30;93.90;;;4.78;77.90;100854.00;5005243;28;97127;-73
2020/12/10 04:46:51;;;;;;;6.82;4.72;;;1.30;93.90;;;4.83;77.64;100858.53;5013479;27;97781;-73
2020/12/10 04:49:19;;;;;;;11.98;4.68;;;1.30;93.90;;;4.80;77.60;100853.75;5020298;27;97159;-73
2020/12/10 04:51:48;;;;;;;9.90;4.97;;;1.30;93.90;;;4.76;77.92;100858.00;5009414;28;96876;-73
2020/12/10 04:54:16;;;;;;;8.18;3.17;;;1.30;93.90;;;4.56;78.70;100857.91;5029245;28;98124;-73
2020/12/10 04:56:45;;;;;;;15.50;7.65;;;1.30;93.90;;;4.51;78.68;100854.44;5040505;27;97230;-73
2020/12/10 04:59:13;;;;;;;16.77;4.55;;;1.30;93.90;;;4.62;78.65;100856.88;5018598;27;96970;-73
2020/12/10 05:01:40;;;;;;;17.98;6.82;;;1.20;93.90;;;4.71;78.10;100856.09;5019090;27;97413;-73
2020/12/10 05:04:08;;;;;;;3.58;3.28;;;1.20;93.90;;;4.78;77.44;100861.97;5027698;28;98526;-73
2020/12/10 05:06:35;;;;;;;7.50;5.07;;;1.20;93.90;;;4.66;77.75;100850.78;5016941;28;97662;-73
2020/12/10 05:09:09;;;;;;;5.05;3.00;;;1.20;93.90;;;4.63;77.99;100853.16;5027272;28;96635;-73
2020/12/10 05:11:37;;;;;;;12.20;4.22;;;1.20;93.90;;;4.67;78.01;100851.59;5020666;28;96872;-73
2020/12/10 05:14:06;;;;;;;6.75;3.92;;;1.20;93.90;;;4.61;77.70;100842.00;5023825;28;97197;-73
2020/12/10 05:16:34;;;;;;;14.80;4.82;;;1.20;93.90;;;4.63;78.22;100848.66;5016966;27;98543;-74
2020/12/10 05:19:19;;;;;;;6.60;5.18;;;1.20;93.90;;;4.59;77.97;100847.59;5032525;27;96746;-73
2020/12/10 05:22:05;;;;;;;10.45;4.53;;;1.20;93.90;;;4.44;78.43;100854.69;5022192;27;97027;-73
2020/12/10 05:24:34;;;;;;;12.68;3.10;;;1.10;93.90;;;4.30;79.25;100858.84;5012927;28;97811;-73
2020/12/10 05:27:20;;;;;;;4.13;3.30;;;1.10;93.90;;;4.39;78.77;100853.84;5015894;27;96979;-74
2020/12/10 05:29:51;;;;;;;4.68;4.28;;;1.10;93.90;;;4.25;78.74;100860.69;5025233;27;96777;-73
2020/12/10 05:32:43;;;;;;;9.43;3.45;;;1.10;93.90;;;4.33;78.25;100857.53;5025104;28;96991;-73
2020/12/10 05:35:23;;;;;;;5.20;3.55;;;1.00;93.80;;;4.21;78.70;100854.31;5006728;28;96807;-73
2020/12/10 05:37:53;;;;;;;9.38;5.00;;;1.00;93.80;;;4.08;78.35;100860.03;5013609;27;98018;-73
2020/12/10 05:40:22;;;;;;;12.85;4.97;;;1.00;93.80;;;4.08;79.34;100860.84;5029333;28;97147;-73
2020/12/10 05:42:52;;;;;;;14.43;4.55;;;0.90;93.80;;;4.19;78.64;100867.81;5018483;28;96874;-73
2020/12/10 05:45:23;;;;;;;13.63;4.78;;;0.90;93.80;;;4.24;78.39;100862.53;5023893;28;98110;-74
2020/12/10 05:47:59;;;;;;;45.72;6.82;;;0.90;93.90;;;4.35;78.23;100866.81;5020229;27;99073;-74
2020/12/10 05:50:34;;;;;;;15.02;4.57;;;1.00;93.90;;;4.38;78.43;100865.50;5026919;28;96702;-73
2020/12/10 05:53:09;;;;;;;20.92;5.47;;;0.90;93.90;;;4.36;78.25;100859.66;5004112;28;96974;-73
2020/12/10 05:55:40;;;;;;;10.95;4.65;;;0.90;93.90;;;4.32;78.66;100861.25;5030393;27;97015;-73
2020/12/10 05:58:09;;;;;;;27.27;6.72;;;0.90;93.90;;;4.31;78.27;100862.31;5047559;27;97160;-73
2020/12/10 06:00:39;;;;;;;6.50;4.07;;;0.90;93.90;;;4.39;78.01;100867.91;5029448;27;97029;-74
2020/12/10 06:03:06;;;;;;;12.55;5.78;;;0.90;93.90;;;4.41;78.61;100870.31;5030510;28;96907;-73
2020/12/10 06:05:35;;;;;;;9.48;4.72;;;0.90;93.90;;;4.45;78.27;100866.06;5030122;27;97794;-73
2020/12/10 06:08:06;;;;;;;8.07;4.35;;;1.00;93.90;;;4.50;78.04;100877.50;5033370;27;98172;-74
2020/12/10 06:10:38;;;;;;;17.83;5.72;;;1.00;93.90;;;4.49;78.13;100883.88;5024953;28;96670;-73
2020/12/10 06:13:06;;;;;;;20.98;4.63;;;1.00;93.90;;;4.55;78.00;100882.06;5026857;28;98429;-74
2020/12/10 06:15:34;;;;;;;9.23;2.83;;;1.00;93.90;;;4.43;78.92;100884.09;5011484;28;98074;-74
2020/12/10 06:18:10;;;;;;;15.43;5.22;;;1.10;94.00;;;4.41;78.60;100875.59;5007956;28;98314;-73
2020/12/10 06:20:41;;;;;;;11.50;5.50;;;1.10;94.00;;;4.41;78.46;100879.06;5024845;28;97077;-73
2020/12/10 06:23:34;;;;;;;6.50;4.85;;;1.10;93.90;;;4.26;79.34;100881.63;5026915;28;97057;-73
2020/12/10 06:26:36;;;;;;;3.47;3.17;;;1.10;93.90;;;4.37;79.76;100890.44;5019863;27;96826;-73
2020/12/10 06:29:25;;;;;;;3.58;3.28;;;1.10;93.90;;;4.36;78.89;100884.34;5021845;27;97711;-73
2020/12/10 06:32:04;;;;;;;5.47;3.15;;;1.10;93.90;;;4.37;79.34;100885.94;5023179;28;97571;-74
2020/12/10 06:34:42;;;;;;;13.05;2.63;;;1.20;93.90;;;4.23;79.30;100882.13;5020781;27;97148;-74
2020/12/10 06:37:26;;;;;;;6.55;5.90;;;1.20;93.90;;;4.36;79.76;100888.84;5023619;28;97124;-73
2020/12/10 06:40:04;;;;;;;10.32;5.25;;;1.20;93.90;;;4.34;79.41;100888.31;5023837;28;97681;-73
2020/12/10 06:42:46;;;;;;;33.55;6.53;;;1.20;93.90;;;4.38;79.04;100881.44;5019136;27;97067;-74
2020/12/10 06:45:34;;;;;;;8.73;4.30;;;1.20;93.90;;;4.32;79.87;100887.75;5022167;28;96886;-73
2020/12/10 06:48:07;;;;;;;25.02;7.80;;;1.20;93.90;;;4.29;79.97;100875.81;5015329;28;97806;-73
2020/12/10 06:50:40;;;;;;;45.25;6.55;;;1.20;93.90;;;4.32;79.62;100877.94;5023356;28;97796;-73
2020/12/10 06:53:11;;;;;;;16.30;5.20;;;1.20;93.90;;;4.28;79.30;100876.84;5029495;27;96738;-73
2020/12/10 06:56:05;;;;;;;3.88;3.53;;;1.20;93.90;;;4.28;79.61;100873.44;5011567;27;96920;-73
2020/12/10 06:58:55;;;;;;;9.65;4.07;;;1.20;93.90;;;4.23;79.40;100881.34;5016514;27;97432;-73
2020/12/10 07:01:36;;;;;;;9.77;5.95;;;1.20;93.90;;;4.20;79.55;100873.88;5026305;27;97732;-73
2020/12/10 07:04:31;;;;;;;17.65;6.43;;;1.20;93.90;;;4.11;80.97;100878.09;5009754;28;96678;-73
2020/12/10 07:07:19;;;;;;;5.72;3.85;;;1.20;93.90;;;4.12;80.37;100882.31;5015353;28;96902;-73
2020/12/10 07:09:54;;;;;;;10.82;6.38;;;1.20;94.00;;;4.13;80.60;100878.63;5012241;28;97118;-73
2020/12/10 07:12:25;;;;;;;2.92;2.72;;;1.20;93.90;;;4.17;80.14;100875.22;5011729;28;98104;-73
2020/12/10 07:15:10;;;;;;;9.25;4.05;;;1.20;93.90;;;4.27;80.46;100882.44;5025613;27;97402;-73
2020/12/10 07:17:38;;;;;;;10.23;4.05;;;1.20;93.90;;;4.26;80.26;100883.50;5016528;27;98793;-73
2020/12/10 07:20:06;;;;;;;9.05;4.95;;;1.20;93.90;;;4.19;80.71;100891.66;5019773;28;97881;-73
2020/12/10 07:22:35;;;;;;;16.63;5.25;;;1.20;93.90;;;4.27;80.11;100885.88;5015549;27;96801;-73
2020/12/10 07:25:03;;;;;;;22.92;5.10;;;1.20;93.90;;;4.21;80.03;100886.91;5030837;27;96818;-73
2020/12/10 07:27:32;;;;;;;16.95;5.43;;;1.20;93.90;;;4.18;79.88;100884.75;5015319;28;97260;-73
2020/12/10 07:30:00;;;;;;;13.52;5.55;;;1.20;93.90;;;4.23;79.86;100886.66;5017241;28;97486;-73
2020/12/10 07:32:33;;;;;;;4.03;2.78;;;1.20;93.90;;;4.22;80.24;100887.72;5020819;28;97709;-73
2020/12/10 07:35:03;;;;;;;6.00;2.45;;;1.20;93.90;;;4.23;80.12;100884.00;5020467;27;97118;-73
2020/12/10 07:37:32;;;;;;;10.57;5.70;;;1.20;93.90;;;4.22;79.63;100891.16;5019727;27;96728;-73
2020/12/10 07:40:12;;;;;;;10.95;5.68;;;1.20;93.90;;;4.29;79.18;100888.28;5009532;28;97185;-73
2020/12/10 07:42:40;;;;;;;2.92;2.15;;;1.20;93.80;;;4.24;78.96;100896.22;5021640;27;96766;-73
2020/12/10 07:45:11;;;;;;;3.53;2.72;;;1.20;93.80;;;4.23;78.85;100892.75;5005869;28;96827;-73
2020/12/10 07:47:39;;;;;;;5.70;3.80;;;1.10;93.80;;;4.26;79.53;100894.88;5026771;28;96738;-73
2020/12/10 07:50:21;;;;;;;8.13;6.78;;;1.10;93.80;;;4.29;78.94;100882.97;5025939;27;97985;-74
2020/12/10 07:52:51;;;;;;;6.63;3.75;;;1.10;93.80;;;4.30;79.42;100887.22;5023505;27;96788;-73
2020/12/10 07:55:23;;;;;;;4.63;3.00;;;1.10;93.80;;;4.25;79.23;100887.19;5028388;28;96620;-74
2020/12/10 07:58:06;;;;;;;17.08;4.82;;;1.10;93.80;;;4.26;79.52;100886.16;5023518;28;96832;-73
2020/12/10 08:00:36;;;;;;;8.57;4.05;;;1.10;93.80;;;4.31;79.23;100883.50;5042824;27;96734;-73
2020/12/10 08:03:27;;;;;;;9.30;4.65;;;1.10;93.90;;;4.48;78.30;100890.25;5032768;27;96727;-73
2020/12/10 08:06:05;;;;;;;14.77;5.18;;;1.10;93.80;;;4.47;78.78;100886.00;5018810;27;96795;-74
2020/12/10 08:08:42;;;;;;;6.90;2.38;;;1.10;93.80;;;4.26;78.76;100886.94;5009489;28;96760;-74
2020/12/10 08:11:17;;;;;;;11.73;5.15;;;1.20;93.80;;;4.28;78.69;100886.69;5021808;27;97022;-73
2020/12/10 08:14:03;;;;;;;6.18;3.67;;;1.10;93.80;;;4.28;79.22;100884.03;5040666;27;97610;-73
2020/12/10 08:16:42;;;;;;;8.10;3.63;;;1.10;93.70;;;4.22;79.63;100882.41;5019536;27;97097;-74
2020/12/10 08:19:15;;;;;;;6.60;2.80;;;1.10;93.70;;;4.26;79.73;100883.50;5023106;27;96693;-74
2020/12/10 08:21:44;;;;;;;6.20;3.03;;;1.10;93.80;;;4.29;79.93;100882.97;5021620;27;98138;-73
2020/12/10 08:24:13;;;;;;;6.90;3.30;;;1.10;93.80;;;4.31;78.99;100891.47;5002763;27;98245;-74
2020/12/10 08:26:42;;;;;;;6.85;2.35;;;1.20;93.80;;;4.29;78.86;100890.94;5023724;27;96621;-74
2020/12/10 08:29:15;;;;;;;12.10;6.15;;;1.20;93.70;;;4.31;78.96;100896.78;4991596;27;96786;-74
2020/12/10 08:31:43;;;;;;;6.13;3.15;;;1.20;93.70;;;4.40;78.88;100895.22;4986386;28;96919;-73
2020/12/10 08:34:19;;;;;;;6.63;4.20;;;1.20;93.70;;;4.48;78.65;100903.50;4998909;28;98773;-73
2020/12/10 08:36:47;;;;;;;6.82;4.63;;;1.20;93.70;;;4.52;78.55;100893.97;4986105;28;96952;-74
2020/12/10 08:39:14;;;;;;;14.35;5.40;;;1.20;93.80;;;4.51;78.56;100891.59;4989921;28;96786;-73
2020/12/10 08:41:43;;;;;;;4.18;3.55;;;1.20;93.70;;;4.49;78.66;100898.97;4989089;28;97169;-73
2020/12/10 08:44:10;;;;;;;5.82;3.45;;;1.20;93.70;;;4.48;78.77;100892.06;4987249;28;97269;-74
2020/12/10 08:46:39;;;;;;;5.97;2.90;;;1.20;93.70;;;4.36;78.95;100900.25;4999992;28;98272;-73
2020/12/10 08:49:18;;;;;;;7.60;4.20;;;1.30;93.70;;;4.43;79.80;100906.13;4986260;28;96866;-73
2020/12/10 08:51:48;;;;;;;3.30;2.92;;;1.30;93.70;;;4.44;79.57;100909.56;4992192;28;97793;-73
2020/12/10 08:54:16;;;;;;;6.00;4.28;;;1.30;93.70;;;4.51;79.29;100912.81;4984249;28;98259;-73
2020/12/10 08:56:45;;;;;;;8.55;4.75;;;1.30;93.70;;;4.49;79.54;100909.59;4987950;28;97726;-73
2020/12/10 08:59:13;;;;;;;9.02;3.85;;;1.30;93.70;;;4.51;79.38;100910.16;4984260;28;96910;-73
2020/12/10 09:01:52;;;;;;;7.78;6.07;;;1.40;93.70;;;4.51;79.46;100902.19;4993813;28;98813;-73
2020/12/10 09:04:20;;;;;;;17.05;5.22;;;1.40;93.70;;;4.53;78.96;100900.88;4980205;28;98151;-73
2020/12/10 09:06:48;;;;;;;7.35;3.83;;;1.40;93.80;;;4.57;79.23;100902.75;4973841;28;96697;-73
2020/12/10 09:09:16;;;;;;;19.90;6.55;;;1.40;93.70;;;4.62;79.02;100908.09;5001137;28;96812;-73
2020/12/10 09:11:47;;;;;;;6.90;3.63;;;1.40;93.70;;;4.62;79.14;100904.63;4951514;28;100221;-73
2020/12/10 09:14:14;;;;;;;3.72;3.42;;;1.40;93.70;;;4.71;78.67;100909.19;4962999;28;97704;-73
2020/12/10 09:16:42;;;;;;;6.40;2.55;;;1.40;93.70;;;4.79;78.66;100903.38;4984680;28;96881;-73
2020/12/10 09:19:10;;;;;;;21.85;8.48;;;1.50;93.70;;;4.90;78.56;100905.03;4983753;28;97513;-73
2020/12/10 09:21:38;;;;;;;6.88;4.10;;;1.50;93.70;;;5.01;78.56;100904.00;4984921;28;98308;-73
2020/12/10 09:24:06;;;;;;;34.85;10.13;;;1.60;93.60;;;5.02;78.42;100905.59;4983510;28;96843;-73
2020/12/10 09:26:34;;;;;;;7.82;4.60;;;1.70;93.60;;;5.01;78.50;100908.53;4987334;28;96931;-73
2020/12/10 09:29:04;;;;;;;15.02;4.75;;;1.70;93.50;;;5.01;78.25;100911.94;4986866;28;96949;-73
2020/12/10 09:31:32;;;;;;;36.15;5.57;;;1.80;93.50;;;5.01;79.26;100919.13;5002516;28;98344;-73
2020/12/10 09:34:00;;;;;;;14.90;4.43;;;1.80;93.50;;;5.04;78.67;100914.09;4985335;28;97868;-73
2020/12/10 09:36:32;;;;;;;26.40;5.70;;;1.90;93.50;;;5.10;78.76;100912.25;4987005;28;97136;-73
2020/12/10 09:39:03;;;;;;;5.72;2.63;;;1.90;93.50;;;5.06;78.68;100911.19;4965300;28;96872;-73
2020/12/10 09:41:32;;;;;;;12.55;4.75;;;1.90;93.50;;;5.28;77.99;100912.56;4987014;28;97904;-73
2020/12/10 09:44:02;;;;;;;9.15;5.05;;;1.90;93.50;;;5.24;78.08;100908.84;4985464;28;98987;-73
2020/12/10 09:46:33;;;;;;;5.75;4.65;;;1.90;93.50;;;5.42;77.74;100900.38;4975613;28;96826;-73
2020/12/10 09:49:04;;;;;;;5.88;4.40;;;1.90;93.50;;;5.51;77.48;100897.97;5000463;28;97097;-73
2020/12/10 09:51:39;;;;;;;8.52;4.80;;;2.00;93.50;;;5.47;77.77;100903.03;4989643;28;96937;-73
2020/12/10 09:54:12;;;;;;;16.42;6.35;;;2.00;93.50;;;5.74;77.20;100905.44;5001999;28;96834;-73
2020/12/10 09:56:57;;;;;;;4.82;1.52;;;2.10;93.50;;;5.67;77.43;100908.38;4990598;28;96981;-73
2020/12/10 09:59:26;;;;;;;5.72;3.50;;;2.20;93.50;;;5.82;77.32;100899.63;4979856;28;96956;-72
2020/12/10 10:01:54;;;;;;;13.40;3.28;;;2.30;93.40;;;5.82;77.19;100899.63;4983883;28;97218;-73
2020/12/10 10:04:22;;;;;;;13.57;4.32;;;2.30;93.40;;;5.90;76.95;100905.22;4986806;28;97692;-73
2020/12/10 10:06:50;;;;;;;8.80;4.47;;;2.40;93.40;;;5.86;77.09;100898.84;4990614;28;96690;-73
2020/12/10 10:09:17;;;;;;;15.00;7.00;;;2.40;93.40;;;5.72;77.49;100900.41;4990517;28;96718;-73
2020/12/10 10:11:45;;;;;;;12.13;4.32;;;2.40;93.40;;;5.73;78.05;100887.91;4991217;28;97972;-73
2020/12/10 10:14:13;;;;;;;9.35;6.20;;;2.50;93.40;;;5.72;78.41;100891.63;4984432;28;98015;-72
2020/12/10 10:16:40;;;;;;;6.15;3.60;;;2.50;93.40;;;5.78;78.29;100896.72;4989737;28;96780;-73
2020/12/10 10:19:10;;;;;;;5.53;4.30;;;2.50;93.30;;;5.78;78.17;100898.53;4965700;28;96887;-72
2020/12/10 10:21:37;;;;;;;12.38;2.45;;;2.50;93.40;;;5.83;78.43;100895.91;5004277;28;97307;-72
2020/12/10 10:24:05;;;;;;;8.88;4.30;;;2.60;93.40;;;5.90;78.30;100894.59;4990036;28;98272;-73
2020/12/10 10:26:32;;;;;;;12.18;5.88;;;2.60;93.30;;;5.92;77.93;100895.09;4969022;28;97185;-73
2020/12/10 10:29:05;;;;;;;13.98;6.38;;;2.70;93.30;;;5.94;78.17;100890.31;4985917;28;96872;-73
2020/12/10 10:31:32;;;;;;;7.35;4.78;;;2.70;93.30;;;5.99;78.23;100890.31;4988124;28;96784;-72
2020/12/10 10:34:02;;;;;;;18.08;5.93;;;2.70;93.30;;;5.99;78.15;100879.66;4989431;28;97698;-73
2020/12/10 10:36:32;;;;;;;9.95;4.85;;;2.70;93.30;;;5.96;78.58;100876.78;4985092;28;96716;-73
2020/12/10 10:38:59;;;;;;;16.42;6.85;;;2.80;93.30;;;6.08;78.15;100885.25;4997285;28;97528;-72